Time;durP1;ratioP1;P1;durP2;ratioP2;P2;SDS_P1;SDS_P2;PMS_P1;PMS_P2;Temp;Humidity;BMP_temperature;BMP_pressure;BME280_temperature;BME280_humidity;BME280_pressure;Samples;Min_cycle;Max_cycle;Signal;HPM_P1;HPM_P2
2022/11/15 00:00:49;;;;;;;15.10;5.85;;;;;;;11.06;100.00;97647.66;6243477;23;20012;-80
2022/11/15 00:03:19;;;;;;;14.38;5.63;;;;;;;10.89;100.00;97635.25;6217743;23;20020;-82
2022/11/15 00:05:45;;;;;;;8.27;5.15;;;;;;;10.77;100.00;97634.47;6244800;22;20008;-81
2022/11/15 00:08:11;;;;;;;8.18;5.18;;;;;;;10.75;100.00;97641.78;6243718;23;20016;-81
2022/11/15 00:10:37;;;;;;;8.60;4.80;;;;;;;10.64;100.00;97633.69;6218981;23;20024;-82
2022/11/15 00:13:07;;;;;;;8.48;4.70;;;;;;;10.65;100.00;97629.22;6241533;23;20346;-82
2022/11/15 00:15:40;;;;;;;15.90;4.88;;;;;;;10.62;100.00;97627.88;6245082;22;20447;-82
2022/11/15 00:18:11;;;;;;;8.48;4.45;;;;;;;10.50;100.00;97627.09;6218130;23;20342;-82
2022/11/15 00:20:37;;;;;;;9.27;4.50;;;;;;;10.47;100.00;97622.28;6245559;23;20012;-81
2022/11/15 00:23:04;;;;;;;10.23;5.07;;;;;;;10.40;100.00;97623.19;6248541;22;20007;-81
2022/11/15 00:25:30;;;;;;;10.90;4.72;;;;;;;10.36;100.00;97624.66;6248711;22;20016;-81
2022/11/15 00:27:57;;;;;;;7.95;4.20;;;;;;;10.29;100.00;97622.13;6248714;22;20014;-80
2022/11/15 00:30:22;;;;;;;8.20;4.05;;;;;;;10.24;100.00;97613.38;6275753;22;20010;-80
2022/11/15 00:32:48;;;;;;;8.88;3.85;;;;;;;10.19;100.00;97618.47;6275790;22;20416;-80
2022/11/15 00:35:13;;;;;;;7.65;3.92;;;;;;;10.16;100.00;97617.13;6275762;22;20011;-80
2022/11/15 00:37:39;;;;;;;11.57;4.30;;;;;;;10.07;100.00;97611.41;6248172;22;20017;-81
2022/11/15 00:40:05;;;;;;;12.00;4.40;;;;;;;9.99;100.00;97603.88;6274025;22;20012;-81
2022/11/15 00:42:31;;;;;;;7.72;4.07;;;;;;;9.90;100.00;97600.00;6222256;22;20011;-80
2022/11/15 00:44:57;;;;;;;10.27;4.60;;;;;;;9.92;100.00;97595.31;6248163;22;20064;-80
2022/11/15 00:47:22;;;;;;;10.68;4.45;;;;;;;9.86;100.00;97587.34;6248434;22;20529;-81
2022/11/15 00:49:48;;;;;;;9.88;4.35;;;;;;;9.78;100.00;97585.03;6275523;22;20008;-81
2022/11/15 00:52:14;;;;;;;14.48;5.05;;;;;;;9.78;100.00;97579.00;6275551;22;20019;-81
2022/11/15 00:54:39;;;;;;;10.52;3.78;;;;;;;9.72;100.00;97575.47;6275155;22;20007;-81
2022/11/15 00:57:05;;;;;;;12.23;4.35;;;;;;;9.64;100.00;97573.19;6275458;22;20019;-81
2022/11/15 00:59:30;;;;;;;10.48;4.47;;;;;;;9.53;100.00;97567.66;6275652;22;20484;-81
2022/11/15 01:01:56;;;;;;;9.60;4.95;;;;;;;9.56;100.00;97559.34;6275306;22;20069;-81
2022/11/15 01:04:21;;;;;;;5.97;3.75;;;;;;;9.63;100.00;97555.84;6275201;22;20407;-81
2022/11/15 01:06:47;;;;;;;8.70;4.20;;;;;;;9.54;100.00;97543.06;6275581;22;20018;-81
2022/11/15 01:09:14;;;;;;;7.65;3.78;;;;;;;9.45;100.00;97539.19;6249264;22;20007;-81
2022/11/15 01:11:40;;;;;;;8.43;3.47;;;;;;;9.39;100.00;97529.59;6273295;22;20045;-81
2022/11/15 01:14:06;;;;;;;9.75;4.10;;;;;;;9.31;100.00;97527.31;6274939;22;20106;-81
2022/11/15 01:16:33;;;;;;;5.65;3.08;;;;;;;9.24;100.00;97538.69;6275024;22;20003;-81
2022/11/15 01:18:59;;;;;;;11.50;3.83;;;;;;;9.14;100.00;97523.50;6275333;22;20008;-81
2022/11/15 01:21:25;;;;;;;16.10;4.88;;;;;;;9.15;100.00;97534.75;6275601;22;20019;-80
2022/11/15 01:23:55;;;;;;;9.85;3.88;;;;;;;9.09;100.00;97525.19;6275003;22;20011;-80
2022/11/15 01:26:21;;;;;;;10.68;4.68;;;;;;;9.08;100.00;97526.22;6274779;22;20015;-80
2022/11/15 01:28:47;;;;;;;12.40;4.53;;;;;;;9.07;100.00;97507.06;6274920;22;20008;-80
2022/11/15 01:31:17;;;;;;;8.93;3.92;;;;;;;9.09;100.00;97522.56;6274585;22;20438;-80
2022/11/15 01:33:43;;;;;;;8.48;3.72;;;;;;;9.08;100.00;97513.13;6274846;22;20015;-80
2022/11/15 01:36:12;;;;;;;7.07;3.83;;;;;;;9.06;100.00;97510.72;6274470;22;20015;-80
2022/11/15 01:38:38;;;;;;;7.60;3.10;;;;;;;9.13;100.00;97503.56;6274209;22;20035;-80
2022/11/15 01:41:04;;;;;;;11.43;3.53;;;;;;;9.14;100.00;97496.53;6274595;22;20007;-80
2022/11/15 01:43:33;;;;;;;12.93;2.97;;;;;;;9.00;100.00;97494.06;6274085;22;20011;-79
2022/11/15 01:46:19;;;;;;;13.50;3.72;;;;;;;9.10;100.00;97487.53;6274564;22;20015;-80
2022/11/15 01:48:45;;;;;;;18.92;3.80;;;;;;;9.07;100.00;97490.59;6275117;22;20011;-80
2022/11/15 01:51:13;;;;;;;8.95;3.08;;;;;;;9.20;100.00;97479.91;6275027;22;20011;-81
2022/11/15 01:53:43;;;;;;;6.03;2.67;;;;;;;9.18;100.00;97475.94;6274462;22;20426;-81
2022/11/15 01:56:14;;;;;;;14.57;2.78;;;;;;;9.22;100.00;97467.38;6274909;22;20042;-81
2022/11/15 01:58:40;;;;;;;10.32;2.83;;;;;;;9.16;100.00;97475.38;6247543;22;20061;-81
2022/11/15 02:01:07;;;;;;;9.02;2.47;;;;;;;9.28;100.00;97466.50;6274342;22;20012;-81
2022/11/15 02:03:44;;;;;;;13.60;3.03;;;;;;;9.37;100.00;97464.38;6274772;22;20091;-81
2022/11/15 02:06:10;;;;;;;8.93;2.58;;;;;;;9.39;100.00;97456.28;6274745;22;20430;-81
2022/11/15 02:08:36;;;;;;;14.60;3.28;;;;;;;9.41;100.00;97448.97;6274707;22;20012;-81
2022/11/15 02:11:07;;;;;;;16.17;3.25;;;;;;;9.42;100.00;97453.19;6274297;22;20311;-81
2022/11/15 02:13:32;;;;;;;10.52;3.80;;;;;;;9.33;100.00;97446.72;6274481;22;20014;-81
2022/11/15 02:16:23;;;;;;;8.98;3.05;;;;;;;9.45;100.00;97444.09;6274166;22;20003;-81
2022/11/15 02:19:07;;;;;;;11.95;3.78;;;;;;;9.47;100.00;97437.63;6247590;22;20342;-81
2022/11/15 02:21:49;;;;;;;13.68;3.60;;;;;;;9.40;100.00;97426.44;6274592;22;20015;-81
2022/11/15 02:24:30;;;;;;;13.15;3.53;;;;;;;9.50;100.00;97424.06;6274328;22;20476;-81
2022/11/15 02:27:24;;;;;;;12.38;3.28;;;;;;;9.56;100.00;97415.28;6274654;22;20011;-81
2022/11/15 02:30:08;;;;;;;8.25;3.08;;;;;;;9.53;100.00;97421.00;6247396;22;20018;-81
2022/11/15 02:32:44;;;;;;;12.73;3.50;;;;;;;9.53;100.00;97409.69;6246767;22;20108;-80
2022/11/15 02:35:13;;;;;;;11.05;3.58;;;;;;;9.43;100.00;97410.25;6273735;22;20034;-80
2022/11/15 02:37:52;;;;;;;15.35;4.95;;;;;;;9.53;100.00;97399.22;6273962;22;20012;-80
2022/11/15 02:40:26;;;;;;;17.50;5.13;;;;;;;9.58;100.00;97392.28;6274528;22;20007;-80
2022/11/15 02:45:58;;;;;;;16.02;5.50;;;;;;;9.48;100.00;97378.97;6274258;22;20039;-81
2022/11/15 02:48:26;;;;;;;16.17;4.85;;;;;;;9.52;100.00;97371.44;6274572;22;20311;-80
2022/11/15 02:50:52;;;;;;;14.38;4.32;;;;;;;9.45;100.00;97370.75;6247235;22;20016;-81
2022/11/15 02:53:23;;;;;;;10.35;4.00;;;;;;;9.52;100.00;97367.00;6274544;22;20387;-80
2022/11/15 02:55:51;;;;;;;12.98;3.70;;;;;;;9.60;100.00;97362.44;6274445;22;20501;-80
2022/11/15 02:58:19;;;;;;;13.57;3.70;;;;;;;9.66;100.00;97358.91;6273761;22;20069;-81
2022/11/15 03:01:20;;;;;;;13.90;4.03;;;;;;;9.63;100.00;97356.75;6274387;22;20027;-81
2022/11/15 03:04:14;;;;;;;14.15;4.15;;;;;;;9.48;100.00;97355.41;6225406;22;20051;-81
2022/11/15 03:07:01;;;;;;;13.38;4.32;;;;;;;9.57;100.00;97345.38;6274228;22;20102;-81
2022/11/15 03:09:34;;;;;;;11.35;4.35;;;;;;;9.56;100.00;97339.31;6273778;22;20393;-82
2022/11/15 03:12:30;;;;;;;13.35;4.85;;;;;;;9.59;100.00;97327.59;6247330;22;20007;-80
2022/11/15 03:15:01;;;;;;;13.45;5.30;;;;;;;9.50;100.00;97319.31;6244357;22;20369;-81
2022/11/15 03:17:32;;;;;;;13.43;4.88;;;;;;;9.51;100.00;97318.28;6274636;22;20090;-81
2022/11/15 03:20:01;;;;;;;15.07;3.97;;;;;;;9.46;100.00;97310.31;6274721;22;20784;-81
2022/11/15 03:22:30;;;;;;;10.48;4.60;;;;;;;9.44;100.00;97317.59;6241865;23;20018;-80
2022/11/15 03:25:00;;;;;;;16.55;4.80;;;;;;;9.47;100.00;97308.47;6241712;23;20023;-82
2022/11/15 03:27:31;;;;;;;15.40;4.70;;;;;;;9.44;100.00;97296.66;6243557;22;20415;-81
2022/11/15 03:30:03;;;;;;;14.13;3.80;;;;;;;9.51;100.00;97299.94;6241679;23;20023;-80
2022/11/15 03:32:32;;;;;;;9.68;3.13;;;;;;;9.46;100.00;97299.03;6243245;22;20019;-80
2022/11/15 03:35:09;;;;;;;11.82;3.63;;;;;;;9.48;100.00;97287.31;6243084;22;20457;-81
2022/11/15 03:37:57;;;;;;;13.35;3.90;;;;;;;9.62;100.00;97284.41;6242291;23;20008;-80
2022/11/15 03:40:29;;;;;;;13.45;3.38;;;;;;;9.69;100.00;97283.25;6243449;22;20096;-81
2022/11/15 03:43:00;;;;;;;14.60;3.77;;;;;;;9.71;100.00;97275.19;6241229;23;20080;-81
2022/11/15 03:45:40;;;;;;;14.82;3.70;;;;;;;9.70;100.00;97270.97;6242971;22;20012;-81
2022/11/15 03:48:35;;;;;;;13.05;3.85;;;;;;;9.73;100.00;97273.13;6243354;22;20012;-81
2022/11/15 03:51:04;;;;;;;12.63;3.25;;;;;;;9.79;100.00;97264.31;6212121;23;20043;-80
2022/11/15 03:53:31;;;;;;;13.65;3.20;;;;;;;9.80;100.00;97267.75;6243843;22;20086;-80
2022/11/15 03:55:56;;;;;;;11.70;3.15;;;;;;;9.74;100.00;97259.00;6243141;23;20061;-80
2022/11/15 03:58:22;;;;;;;15.27;3.03;;;;;;;9.71;100.00;97254.22;6245684;22;20087;-81
2022/11/15 04:00:48;;;;;;;11.80;2.92;;;;;;;9.83;100.00;97262.03;6244055;23;20008;-80
2022/11/15 04:03:15;;;;;;;10.65;3.20;;;;;;;9.83;100.00;97264.66;6243655;23;20103;-81
2022/11/15 04:05:40;;;;;;;10.98;2.85;;;;;;;9.77;100.00;97263.75;6244952;22;20008;-80
2022/11/15 04:08:06;;;;;;;13.10;3.15;;;;;;;9.91;100.00;97256.41;6243890;23;20082;-81
2022/11/15 04:10:31;;;;;;;13.30;3.40;;;;;;;9.85;100.00;97254.75;6244964;22;20009;-81
2022/11/15 04:12:57;;;;;;;8.10;2.88;;;;;;;9.98;100.00;97251.84;6245099;22;20390;-80
2022/11/15 04:15:24;;;;;;;18.10;5.15;;;;;;;9.96;100.00;97246.03;6245094;23;20039;-81
2022/11/15 04:17:52;;;;;;;14.90;3.88;;;;;;;10.08;100.00;97246.00;6245353;22;20434;-80
2022/11/15 04:25:54;;;;;;;14.85;3.25;;;;;;;9.85;100.00;97234.59;6201819;22;20027;-81
2022/11/15 04:28:20;;;;;;;13.52;2.90;;;;;;;10.04;100.00;97231.78;6276011;22;20391;-80
2022/11/15 04:30:46;;;;;;;14.05;3.00;;;;;;;10.06;100.00;97234.94;6274488;22;20094;-80
2022/11/15 04:33:12;;;;;;;11.70;2.70;;;;;;;10.11;100.00;97221.91;6275132;22;20442;-80
2022/11/15 04:35:38;;;;;;;11.32;3.10;;;;;;;10.03;100.00;97216.25;6274744;22;20384;-80
2022/11/15 04:38:05;;;;;;;6.65;2.58;;;;;;;10.17;100.00;97209.69;6275800;22;20041;-80
2022/11/15 04:40:31;;;;;;;20.30;3.33;;;;;;;10.20;100.00;97219.72;6275391;22;20489;-81
2022/11/15 04:42:57;;;;;;;13.13;2.97;;;;;;;10.26;100.00;97207.47;6275553;22;20035;-81
2022/11/15 04:45:22;;;;;;;10.82;3.60;;;;;;;10.29;100.00;97204.38;6275687;22;20011;-81
2022/11/15 04:47:48;;;;;;;14.35;4.03;;;;;;;10.40;100.00;97203.53;6275917;22;20007;-81
2022/11/15 04:50:15;;;;;;;7.60;3.00;;;;;;;10.40;100.00;97195.66;6274571;22;20015;-81
2022/11/15 04:52:43;;;;;;;12.02;3.67;;;;;;;10.47;100.00;97195.50;6274903;22;20008;-80
2022/11/15 04:55:10;;;;;;;11.82;3.30;;;;;;;10.36;100.00;97191.13;6247611;22;20028;-80
2022/11/15 04:57:37;;;;;;;22.60;3.58;;;;;;;10.40;100.00;97186.97;6248264;22;20511;-80
2022/11/15 05:00:08;;;;;;;10.50;2.92;;;;;;;10.32;100.00;97195.22;6275530;22;20011;-81
2022/11/15 05:05:18;;;;;;;17.00;3.45;;;;;;;10.05;100.00;97180.94;6274836;22;20008;-80
2022/11/15 05:07:43;;;;;;;16.73;4.30;;;;;;;10.09;100.00;97181.22;6274982;22;20018;-80
2022/11/15 05:10:09;;;;;;;12.55;3.22;;;;;;;10.34;100.00;97175.59;6275259;22;20030;-80
2022/11/15 05:12:36;;;;;;;12.32;3.97;;;;;;;10.15;100.00;97170.59;6248247;22;20061;-80
2022/11/15 05:15:02;;;;;;;12.63;3.90;;;;;;;10.36;100.00;97176.16;6275418;22;20007;-80
2022/11/15 05:17:27;;;;;;;17.50;4.55;;;;;;;10.13;100.00;97170.03;6248779;22;20161;-81
2022/11/15 05:19:53;;;;;;;17.58;4.32;;;;;;;10.31;100.00;97152.50;6275452;22;20589;-81
2022/11/15 05:22:19;;;;;;;15.10;4.63;;;;;;;10.31;100.00;97165.59;6274852;22;20099;-81
2022/11/15 05:24:45;;;;;;;15.13;4.53;;;;;;;10.18;100.00;97147.56;6247774;22;20015;-81
2022/11/15 05:27:10;;;;;;;17.73;4.88;;;;;;;10.33;100.00;97136.53;6274852;22;20014;-81
2022/11/15 05:29:36;;;;;;;12.93;4.90;;;;;;;10.12;100.00;97134.38;6247669;22;20026;-81
2022/11/15 05:32:05;;;;;;;12.93;5.05;;;;;;;10.26;100.00;97139.31;6247543;22;20460;-80
2022/11/15 05:34:30;;;;;;;13.95;5.13;;;;;;;10.25;100.00;97137.72;6275123;22;20011;-81
2022/11/15 05:36:59;;;;;;;11.25;5.30;;;;;;;10.34;100.00;97131.03;6274595;22;20116;-81
2022/11/15 05:39:25;;;;;;;12.75;5.68;;;;;;;10.35;100.00;97130.00;6247721;22;20410;-81
2022/11/15 05:41:55;;;;;;;20.92;6.38;;;;;;;10.36;100.00;97118.47;6275162;22;20069;-81
2022/11/15 05:44:23;;;;;;;18.20;6.55;;;;;;;10.37;100.00;97114.81;6275216;22;20077;-81
2022/11/15 05:46:53;;;;;;;18.55;7.15;;;;;;;10.47;100.00;97121.28;6247836;22;20107;-82
2022/11/15 05:49:22;;;;;;;13.52;6.50;;;;;;;10.47;100.00;97123.91;6275134;22;20434;-81
2022/11/15 05:51:49;;;;;;;13.43;6.97;;;;;;;10.45;100.00;97111.00;6274761;22;20015;-80
2022/11/15 05:54:17;;;;;;;11.88;6.65;;;;;;;10.52;100.00;97102.97;6275351;22;20422;-81
2022/11/15 05:56:43;;;;;;;13.73;7.40;;;;;;;10.52;100.00;97101.16;6274681;22;20035;-81
2022/11/15 05:59:10;;;;;;;17.55;7.05;;;;;;;10.47;100.00;97098.44;6274498;22;20086;-80
2022/11/15 06:01:36;;;;;;;14.65;6.90;;;;;;;10.62;100.00;97084.75;6222571;22;20015;-82
2022/11/15 06:04:02;;;;;;;14.77;7.03;;;;;;;10.65;100.00;97083.47;6274644;22;20091;-81
2022/11/15 06:06:28;;;;;;;16.38;7.35;;;;;;;10.49;100.00;97079.84;6246626;22;20446;-81
2022/11/15 06:08:54;;;;;;;16.00;7.65;;;;;;;10.59;100.00;97069.47;6274730;22;20099;-81
2022/11/15 06:11:20;;;;;;;14.70;7.15;;;;;;;10.52;100.00;97063.63;6274676;22;20036;-82
2022/11/15 06:13:45;;;;;;;18.42;7.20;;;;;;;10.71;100.00;97067.53;6247622;22;20011;-81
2022/11/15 06:16:11;;;;;;;17.65;6.32;;;;;;;10.63;100.00;97059.31;6274787;22;20629;-82
2022/11/15 06:18:38;;;;;;;17.33;6.50;;;;;;;10.66;100.00;97048.31;6274291;22;20473;-81
2022/11/15 06:21:04;;;;;;;14.93;6.45;;;;;;;10.65;100.00;97047.53;6274381;22;20038;-82
2022/11/15 06:23:34;;;;;;;16.75;6.38;;;;;;;10.76;100.00;97050.25;6274139;22;20062;-81
2022/11/15 06:26:02;;;;;;;13.63;6.75;;;;;;;10.64;100.00;97035.47;6273288;22;20081;-82
2022/11/15 06:28:29;;;;;;;11.38;6.03;;;;;;;10.65;100.00;97036.25;6273835;22;20008;-81
2022/11/15 06:30:54;;;;;;;9.43;5.82;;;;;;;10.70;100.00;97031.84;6274360;22;20015;-81
2022/11/15 06:33:20;;;;;;;13.75;6.72;;;;;;;10.84;100.00;97028.84;6274712;22;20058;-81
2022/11/15 06:35:46;;;;;;;20.52;7.43;;;;;;;10.87;100.00;97036.25;6273997;22;20065;-80
2022/11/15 06:38:12;;;;;;;15.02;8.05;;;;;;;10.82;100.00;97025.69;6247627;22;20017;-81
2022/11/15 06:40:39;;;;;;;14.65;6.80;;;;;;;10.74;100.00;97018.22;6247473;22;20414;-80
2022/11/15 06:43:05;;;;;;;16.13;6.90;;;;;;;10.63;100.00;97012.88;6247271;22;20221;-81
2022/11/15 06:45:31;;;;;;;11.98;7.38;;;;;;;10.78;100.00;97008.81;6247002;22;20008;-81
2022/11/15 06:47:58;;;;;;;19.35;7.85;;;;;;;10.84;100.00;97008.63;6274379;22;20007;-81
2022/11/15 06:50:25;;;;;;;15.82;7.40;;;;;;;10.69;100.00;96998.78;6247046;22;20011;-80
2022/11/15 06:52:50;;;;;;;14.30;7.45;;;;;;;10.74;100.00;97003.28;6247433;22;20430;-81
2022/11/15 06:55:16;;;;;;;13.50;7.28;;;;;;;10.86;100.00;97003.16;6246916;22;20014;-81
2022/11/15 06:57:48;;;;;;;19.95;7.60;;;;;;;10.84;100.00;96994.75;6274014;22;20492;-81
2022/11/15 07:00:15;;;;;;;12.88;7.30;;;;;;;10.85;100.00;96983.19;6247094;22;20379;-81
2022/11/15 07:02:41;;;;;;;27.92;14.90;;;;;;;10.92;100.00;96983.00;6274208;22;20014;-81
2022/11/15 07:05:06;;;;;;;27.75;11.95;;;;;;;10.91;100.00;96981.44;6272958;22;20012;-81
2022/11/15 07:07:32;;;;;;;33.20;12.80;;;;;;;10.89;100.00;96976.41;6221387;22;20015;-81
2022/11/15 07:09:58;;;;;;;21.88;10.57;;;;;;;10.84;100.00;96968.50;6246878;22;20015;-82
2022/11/15 07:12:29;;;;;;;19.35;10.55;;;;;;;10.94;100.00;96960.72;6274366;22;20015;-81
2022/11/15 07:14:54;;;;;;;19.58;10.40;;;;;;;10.82;100.00;96960.09;6247052;22;20430;-81
2022/11/15 07:17:20;;;;;;;25.63;13.82;;;;;;;10.86;100.00;96958.53;6274473;22;20034;-81
2022/11/15 07:19:46;;;;;;;15.93;10.23;;;;;;;10.86;100.00;96954.06;6247234;22;20057;-84
2022/11/15 07:22:11;;;;;;;15.73;9.05;;;;;;;10.95;100.00;96948.38;6241088;23;20114;-80
2022/11/15 07:24:37;;;;;;;14.70;9.63;;;;;;;10.92;100.00;96948.88;6244140;23;20099;-81
2022/11/15 07:27:02;;;;;;;16.88;9.98;;;;;;;10.81;100.00;96938.28;6244748;22;20008;-81
2022/11/15 07:29:28;;;;;;;15.05;8.50;;;;;;;11.00;100.00;96948.44;6218363;23;20008;-82
2022/11/15 07:31:54;;;;;;;13.65;8.20;;;;;;;11.03;100.00;96947.16;6244723;22;20032;-81
2022/11/15 07:34:20;;;;;;;16.13;8.15;;;;;;;10.85;100.00;96941.22;6245491;22;20019;-83
2022/11/15 07:36:45;;;;;;;17.10;8.60;;;;;;;10.81;100.00;96945.38;6245466;23;20016;-81
2022/11/15 07:39:12;;;;;;;15.43;9.55;;;;;;;10.88;100.00;96938.09;6243944;22;20396;-81
2022/11/15 07:41:38;;;;;;;13.45;8.55;;;;;;;10.92;100.00;96939.16;6244898;23;20058;-82
2022/11/15 07:44:04;;;;;;;17.67;10.93;;;;;;;10.84;100.00;96929.13;6243032;23;20007;-82
2022/11/15 07:46:31;;;;;;;13.60;8.55;;;;;;;10.87;100.00;96928.63;6244913;22;20505;-81
2022/11/15 07:48:56;;;;;;;12.63;8.93;;;;;;;10.94;100.00;96928.44;6244939;22;20035;-83
2022/11/15 07:51:23;;;;;;;16.35;9.73;;;;;;;11.02;100.00;96929.81;6245337;22;20019;-83
2022/11/15 07:53:48;;;;;;;16.40;10.02;;;;;;;10.98;100.00;96935.53;6244662;22;20116;-80
2022/11/15 07:56:14;;;;;;;17.17;10.70;;;;;;;10.97;100.00;96923.47;6244541;23;20008;-81
2022/11/15 07:58:40;;;;;;;17.33;10.05;;;;;;;11.08;100.00;96923.56;6244699;23;20016;-80
2022/11/15 08:01:09;;;;;;;21.23;11.65;;;;;;;10.90;100.00;96922.88;6243427;23;20042;-82
2022/11/15 08:03:35;;;;;;;18.58;11.23;;;;;;;11.05;100.00;96913.56;6242823;23;20026;-79
2022/11/15 08:06:01;;;;;;;18.40;10.15;;;;;;;11.04;100.00;96911.97;6244601;22;20008;-81
2022/11/15 08:08:27;;;;;;;18.85;10.57;;;;;;;11.14;100.00;96906.78;6245697;22;20019;-82
2022/11/15 08:10:52;;;;;;;22.10;10.65;;;;;;;11.13;100.00;96910.47;6244742;23;20377;-83
2022/11/15 08:13:18;;;;;;;18.13;10.93;;;;;;;11.14;100.00;96906.78;6244226;22;20093;-84
2022/11/15 08:15:44;;;;;;;15.45;10.15;;;;;;;11.08;100.00;96897.31;6244451;22;20004;-84
2022/11/15 08:18:12;;;;;;;16.77;10.13;;;;;;;11.14;100.00;96901.53;6242882;23;20106;-83
2022/11/15 08:20:41;;;;;;;17.30;8.65;;;;;;;11.04;100.00;96890.97;6245656;22;20082;-82
2022/11/15 08:23:09;;;;;;;17.55;9.35;;;;;;;11.31;100.00;96900.63;6246984;22;20094;-82
2022/11/15 08:25:38;;;;;;;14.48;8.32;;;;;;;11.19;100.00;96893.69;6274598;22;20065;-79
2022/11/15 08:28:06;;;;;;;15.00;8.00;;;;;;;11.13;100.00;96889.47;6222888;22;20361;-80
2022/11/15 08:30:42;;;;;;;13.25;8.13;;;;;;;11.32;100.00;96889.06;6274921;22;20027;-85
2022/11/15 08:33:11;;;;;;;14.75;8.43;;;;;;;11.27;100.00;96895.88;6275347;22;20039;-81
2022/11/15 08:35:39;;;;;;;10.63;7.65;;;;;;;11.35;100.00;96885.94;6274767;22;20329;-84
2022/11/15 08:38:05;;;;;;;11.30;8.20;;;;;;;11.34;100.00;96884.34;6275356;22;20102;-81
2022/11/15 08:40:30;;;;;;;11.20;7.72;;;;;;;11.43;100.00;96869.72;6275700;22;20035;-81
2022/11/15 08:42:56;;;;;;;9.65;6.85;;;;;;;11.45;100.00;96870.25;6275092;22;20062;-81
2022/11/15 08:45:21;;;;;;;11.13;7.35;;;;;;;11.35;100.00;96862.28;6275221;22;20019;-82
2022/11/15 08:47:47;;;;;;;11.52;6.50;;;;;;;11.40;100.00;96867.59;6275691;22;20039;-82
2022/11/15 08:50:12;;;;;;;10.48;7.03;;;;;;;11.51;100.00;96856.09;6275329;22;20038;-83
2022/11/15 08:52:38;;;;;;;10.27;6.93;;;;;;;11.50;100.00;96851.88;6275074;22;20438;-82
2022/11/15 08:55:04;;;;;;;11.35;7.20;;;;;;;11.40;100.00;96841.34;6247989;22;20012;-81
2022/11/15 08:57:30;;;;;;;10.18;6.18;;;;;;;11.60;100.00;96843.25;6274911;22;20434;-80
2022/11/15 08:59:57;;;;;;;9.77;6.55;;;;;;;11.58;100.00;96837.47;6273853;22;20338;-79
2022/11/15 09:02:23;;;;;;;12.60;6.57;;;;;;;11.62;100.00;96833.28;6274037;22;20011;-79
2022/11/15 09:04:49;;;;;;;12.48;6.78;;;;;;;11.73;100.00;96818.34;6273090;22;20015;-79
2022/11/15 09:07:14;;;;;;;15.45;6.70;;;;;;;11.55;100.00;96823.00;6275194;22;20498;-79
2022/11/15 09:09:40;;;;;;;11.13;5.47;;;;;;;11.47;100.00;96814.81;6275577;22;20039;-78
2022/11/15 09:12:07;;;;;;;11.05;7.03;;;;;;;11.55;100.00;96814.34;6276337;22;20063;-78
2022/11/15 09:14:33;;;;;;;13.45;7.13;;;;;;;11.71;100.00;96809.94;6245268;22;20008;-79
2022/11/15 09:16:59;;;;;;;10.98;6.97;;;;;;;11.81;100.00;96793.41;6247184;22;20015;-79
2022/11/15 09:19:25;;;;;;;13.57;6.40;;;;;;;11.68;100.00;96795.47;6220905;22;20043;-79
2022/11/15 09:21:51;;;;;;;13.40;6.65;;;;;;;11.55;100.00;96801.22;6247627;22;20065;-83
2022/11/15 09:24:17;;;;;;;12.00;7.00;;;;;;;11.79;100.00;96787.63;6247315;22;20022;-81
2022/11/15 09:26:43;;;;;;;19.48;8.88;;;;;;;11.71;100.00;96768.69;6222668;22;20012;-81
2022/11/15 09:29:09;;;;;;;12.63;8.32;;;;;;;11.75;100.00;96771.59;6247728;22;20016;-80
2022/11/15 09:31:35;;;;;;;13.68;8.23;;;;;;;11.72;100.00;96774.72;6248182;22;20342;-83
2022/11/15 09:34:01;;;;;;;14.23;8.23;;;;;;;11.84;100.00;96767.41;6245727;22;20346;-84
2022/11/15 09:36:27;;;;;;;10.10;7.13;;;;;;;11.95;100.00;96768.25;6274986;22;20454;-84
2022/11/15 09:38:52;;;;;;;13.98;7.57;;;;;;;12.00;100.00;96759.56;6275362;22;20342;-83
2022/11/15 09:41:40;;;;;;;12.38;8.05;;;;;;;12.02;100.00;96756.69;6275473;22;20008;-84
2022/11/15 09:44:18;;;;;;;12.85;7.30;;;;;;;11.93;100.00;96757.19;6274765;22;20145;-83
2022/11/15 09:47:05;;;;;;;13.50;7.10;;;;;;;11.83;100.00;96744.81;6275167;22;20058;-83
2022/11/15 09:49:31;;;;;;;16.63;8.10;;;;;;;11.82;100.00;96745.06;6275022;22;20007;-83
2022/11/15 09:51:58;;;;;;;16.33;7.43;;;;;;;11.94;100.00;96729.84;6274976;22;20011;-83
2022/11/15 09:54:44;;;;;;;11.07;6.40;;;;;;;11.91;100.00;96727.75;6275279;22;20007;-84
2022/11/15 09:57:12;;;;;;;12.40;6.68;;;;;;;12.09;100.00;96717.81;6274928;22;20019;-83
2022/11/15 09:59:50;;;;;;;9.48;6.30;;;;;;;11.96;100.00;96717.22;6274655;22;20464;-83
2022/11/15 10:02:15;;;;;;;8.15;5.68;;;;;;;11.84;100.00;96704.34;6273066;22;20015;-82
2022/11/15 10:04:42;;;;;;;10.52;5.60;;;;;;;12.00;100.00;96697.25;6275041;22;20027;-82
2022/11/15 10:07:39;;;;;;;8.10;5.80;;;;;;;12.19;100.00;96698.63;6248115;22;20037;-83
2022/11/15 10:10:25;;;;;;;11.05;6.03;;;;;;;12.08;100.00;96698.59;6227763;22;20007;-84
2022/11/15 10:12:52;;;;;;;11.57;5.68;;;;;;;12.02;100.00;96698.84;6274517;22;20007;-84
2022/11/15 10:15:22;;;;;;;14.18;6.40;;;;;;;11.98;100.00;96688.03;6274881;22;20046;-84
2022/11/15 10:17:57;;;;;;;12.88;7.55;;;;;;;11.84;100.00;96678.06;6274064;22;20012;-82
2022/11/15 10:20:27;;;;;;;11.15;7.18;;;;;;;11.97;100.00;96686.47;6247989;22;20464;-82
2022/11/15 10:22:56;;;;;;;12.00;6.20;;;;;;;11.90;100.00;96675.44;6274699;22;20480;-82
2022/11/15 10:25:22;;;;;;;11.88;6.78;;;;;;;12.05;100.00;96667.59;6274542;22;20037;-84
2022/11/15 10:28:14;;;;;;;10.85;6.10;;;;;;;12.06;100.00;96661.28;6274629;22;20061;-84
2022/11/15 10:30:49;;;;;;;13.60;6.00;;;;;;;12.07;100.00;96665.47;6247837;22;20014;-83
2022/11/15 10:33:33;;;;;;;11.57;5.75;;;;;;;12.07;100.00;96649.69;6275016;22;20022;-83
2022/11/15 10:36:08;;;;;;;10.30;6.13;;;;;;;12.23;100.00;96642.59;6274592;22;20091;-83
2022/11/15 10:38:49;;;;;;;11.38;6.05;;;;;;;12.27;100.00;96641.00;6274684;22;20054;-83
2022/11/15 10:41:17;;;;;;;9.80;6.10;;;;;;;12.12;100.00;96623.41;6273997;22;20012;-82
2022/11/15 10:43:43;;;;;;;8.93;5.85;;;;;;;12.22;100.00;96614.72;6274740;22;20019;-83
2022/11/15 10:46:24;;;;;;;9.90;6.20;;;;;;;12.42;100.00;96613.91;6274365;22;20039;-84
2022/11/15 10:48:49;;;;;;;8.68;5.25;;;;;;;12.25;100.00;96603.66;6274770;22;20020;-84
2022/11/15 10:51:25;;;;;;;5.75;4.28;;;;;;;12.55;100.00;96595.97;6274473;22;20022;-83
2022/11/15 10:53:51;;;;;;;6.32;4.22;;;;;;;12.70;100.00;96598.56;6274898;22;20007;-83
2022/11/15 10:56:21;;;;;;;6.18;3.85;;;;;;;12.75;100.00;96600.41;6274177;22;20031;-83
2022/11/15 10:58:57;;;;;;;7.57;3.90;;;;;;;12.69;100.00;96590.94;6274310;22;20319;-82
2022/11/15 11:01:25;;;;;;;8.13;4.20;;;;;;;12.70;100.00;96582.78;6274621;22;20023;-82
2022/11/15 11:04:06;;;;;;;5.60;3.63;;;;;;;12.75;100.00;96594.31;6274774;22;20012;-83
2022/11/15 11:06:52;;;;;;;5.97;4.68;;;;;;;12.55;100.00;96580.19;6247353;22;20576;-82
2022/11/15 11:09:30;;;;;;;7.68;4.65;;;;;;;12.61;100.00;96589.66;6273694;22;20094;-83
2022/11/15 11:11:56;;;;;;;7.72;4.40;;;;;;;12.73;100.00;96580.66;6273885;22;20559;-83
2022/11/15 11:14:30;;;;;;;6.03;4.13;;;;;;;12.86;100.00;96572.19;6274320;22;20118;-82
2022/11/15 11:17:10;;;;;;;4.68;3.80;;;;;;;12.83;100.00;96568.22;6274133;22;20350;-83
2022/11/15 11:19:50;;;;;;;7.50;4.22;;;;;;;12.83;100.00;96556.94;6247601;22;20012;-82
2022/11/15 11:22:24;;;;;;;5.88;3.90;;;;;;;12.80;100.00;96544.31;6274373;22;20094;-83
2022/11/15 11:25:10;;;;;;;4.53;3.35;;;;;;;12.80;100.00;96545.09;6274381;22;20043;-82
2022/11/15 11:27:42;;;;;;;3.63;3.00;;;;;;;12.83;100.00;96541.13;6274776;22;20026;-82
2022/11/15 11:30:16;;;;;;;3.13;2.78;;;;;;;12.84;100.00;96530.31;6274335;22;20007;-83
2022/11/15 11:33:13;;;;;;;3.92;2.97;;;;;;;12.84;100.00;96532.19;6274742;22;20960;-83
2022/11/15 11:36:05;;;;;;;5.63;3.00;;;;;;;12.82;100.00;96521.91;6274687;22;20004;-83
2022/11/15 11:39:06;;;;;;;3.35;2.40;;;;;;;12.95;100.00;96520.53;6274254;22;20032;-83
2022/11/15 11:41:56;;;;;;;2.75;2.47;;;;;;;12.73;100.00;96502.50;6215380;22;20099;-82
2022/11/15 11:45:12;;;;;;;10.00;3.25;;;;;;;12.89;100.00;96507.69;6274732;22;20004;-82